createdAt,value
2022-08-19T00:00:44.794Z,20.24
2022-08-19T00:01:44.802Z,20.24
2022-08-19T00:02:50.128Z,20.20
2022-08-19T00:03:44.759Z,20.24
2022-08-19T00:04:44.785Z,20.23
2022-08-19T00:05:44.779Z,20.28
2022-08-19T00:06:44.736Z,20.24
2022-08-19T00:07:44.716Z,20.21
2022-08-19T00:08:44.703Z,20.29
2022-08-19T00:09:44.715Z,20.33
2022-08-19T00:10:44.691Z,20.31
2022-08-19T00:11:44.672Z,20.39
2022-08-19T00:12:46.842Z,20.32
2022-08-19T00:13:44.648Z,20.33
2022-08-19T00:14:44.680Z,20.32
2022-08-19T00:15:44.628Z,20.36
2022-08-19T00:16:44.618Z,20.35
2022-08-19T00:17:44.626Z,20.32
2022-08-19T00:18:44.596Z,20.33
2022-08-19T00:19:44.608Z,20.38
2022-08-19T00:20:44.572Z,20.41
2022-08-19T00:21:44.558Z,20.35
2022-08-19T00:22:44.552Z,20.38
2022-08-19T00:23:44.540Z,20.32
2022-08-19T00:24:44.530Z,20.38
2022-08-19T00:25:45.539Z,20.41
2022-08-19T00:26:44.505Z,20.35
2022-08-19T00:27:44.494Z,20.36
2022-08-19T00:28:44.501Z,20.38
2022-08-19T00:29:44.474Z,20.35
2022-08-19T00:30:44.487Z,20.35
2022-08-19T00:31:44.451Z,20.39
2022-08-19T00:32:44.464Z,20.31
2022-08-19T00:33:44.431Z,20.35
2022-08-19T00:34:44.418Z,20.35
2022-08-19T00:35:44.406Z,20.32
2022-08-19T00:36:44.396Z,20.39
2022-08-19T00:37:44.409Z,20.33
2022-08-19T00:38:44.376Z,20.33
2022-08-19T00:39:44.387Z,20.28
2022-08-19T00:40:44.353Z,20.32
2022-08-19T00:41:44.341Z,20.32
2022-08-19T00:42:44.353Z,20.33
2022-08-19T00:43:44.315Z,20.38
2022-08-19T00:44:44.308Z,20.35
2022-08-19T00:45:44.323Z,20.28
2022-08-19T00:46:44.285Z,20.36
2022-08-19T00:47:44.273Z,20.29
2022-08-19T00:48:44.266Z,20.38
2022-08-19T00:49:44.254Z,20.38
2022-08-19T00:50:52.002Z,20.29
2022-08-19T00:51:45.235Z,20.28
2022-08-19T00:52:44.220Z,20.29
2022-08-19T00:53:44.204Z,20.23
2022-08-19T00:54:44.217Z,20.21
2022-08-19T00:55:44.184Z,20.28
2022-08-19T00:56:44.196Z,20.28
2022-08-19T00:57:44.163Z,20.28
2022-08-19T00:58:44.155Z,20.28
2022-08-19T01:00:00.943Z,20.29
2022-08-19T01:00:45.150Z,20.29
2022-08-19T01:01:44.166Z,20.24
2022-08-19T01:02:44.111Z,20.24
2022-08-19T01:03:58.047Z,20.31
2022-08-19T01:04:45.107Z,20.28
2022-08-19T01:05:44.095Z,20.28
2022-08-19T01:06:44.084Z,20.24
2022-08-19T01:07:44.053Z,20.20
2022-08-19T01:08:44.066Z,20.26
2022-08-19T01:09:44.032Z,20.28
2022-08-19T01:10:44.020Z,20.20
2022-08-19T01:11:44.029Z,20.29
2022-08-19T01:12:43.998Z,20.24
2022-08-19T01:13:49.200Z,20.28
2022-08-19T01:14:44.979Z,20.29
2022-08-19T01:15:43.964Z,20.26
2022-08-19T01:16:43.983Z,20.20
2022-08-19T01:17:43.943Z,20.28
2022-08-19T01:18:43.930Z,20.28
2022-08-19T01:19:44.731Z,20.26
2022-08-19T01:20:43.929Z,20.32
2022-08-19T01:21:43.917Z,20.29
2022-08-19T01:22:43.889Z,20.26
2022-08-19T01:23:43.875Z,20.16
2022-08-19T01:24:49.585Z,20.28
2022-08-19T01:25:44.872Z,20.20
2022-08-19T01:26:43.870Z,20.16
2022-08-19T01:27:44.090Z,20.17
2022-08-19T01:28:43.822Z,20.17
2022-08-19T01:29:43.836Z,20.20
2022-08-19T01:30:44.418Z,20.17
2022-08-19T01:31:44.785Z,20.08
2022-08-19T01:32:43.773Z,20.14
2022-08-19T01:33:43.766Z,20.17
2022-08-19T01:34:43.754Z,20.11
2022-08-19T01:35:43.770Z,20.16
2022-08-19T01:36:43.784Z,20.10
2022-08-19T01:37:43.719Z,20.02
2022-08-19T01:38:44.207Z,20.02
2022-08-19T01:39:43.732Z,19.99
2022-08-19T01:40:43.707Z,20.11
2022-08-19T01:41:43.678Z,20.02
2022-08-19T01:42:43.661Z,20.14
2022-08-19T01:44:18.159Z,20.16
2022-08-19T01:44:44.641Z,20.14
2022-08-19T01:45:43.650Z,20.01
2022-08-19T01:46:43.629Z,20.03
2022-08-19T01:47:43.612Z,20.10
2022-08-19T01:48:44.596Z,20.14
2022-08-19T01:49:43.606Z,20.10
2022-08-19T01:50:43.576Z,20.03
2022-08-19T01:51:43.587Z,20.03
2022-08-19T01:52:43.554Z,20.10
2022-08-19T01:53:43.563Z,20.11
2022-08-19T01:54:43.541Z,20.11
2022-08-19T01:55:43.520Z,20.11
2022-08-19T01:56:43.509Z,19.94
2022-08-19T01:57:43.517Z,20.11
2022-08-19T01:58:43.489Z,20.08
2022-08-19T01:59:43.478Z,20.06
2022-08-19T02:00:43.472Z,19.98
2022-08-19T02:01:43.552Z,20.05
2022-08-19T02:02:44.231Z,20.10
2022-08-19T02:03:43.432Z,20.01
2022-08-19T02:04:43.452Z,20.11
2022-08-19T02:05:43.413Z,19.95
2022-08-19T02:06:43.402Z,20.05
2022-08-19T02:07:43.386Z,20.01
2022-08-19T02:08:43.398Z,19.99
2022-08-19T02:09:43.366Z,20.03
2022-08-19T02:10:43.369Z,20.05
2022-08-19T02:11:43.343Z,20.02
2022-08-19T02:12:43.357Z,19.99
2022-08-19T02:13:43.322Z,19.96
2022-08-19T02:14:43.311Z,20.03
2022-08-19T02:15:43.322Z,19.98
2022-08-19T02:16:43.309Z,20.05
2022-08-19T02:17:43.297Z,19.96
2022-08-19T02:18:43.267Z,20.03
2022-08-19T02:19:43.272Z,19.96
2022-08-19T02:20:43.245Z,19.96
2022-08-19T02:21:43.232Z,20.01
2022-08-19T02:22:43.245Z,19.98
2022-08-19T02:23:43.210Z,20.01
2022-08-19T02:24:43.220Z,19.95
2022-08-19T02:25:43.186Z,19.99
2022-08-19T02:26:43.207Z,20.02
2022-08-19T02:27:43.166Z,19.98
2022-08-19T02:28:43.343Z,19.95
2022-08-19T02:29:43.163Z,19.98
2022-08-19T02:30:43.134Z,19.94
2022-08-19T02:31:43.145Z,19.98
2022-08-19T02:32:44.512Z,19.88
2022-08-19T02:33:43.096Z,19.96
2022-08-19T02:34:43.110Z,19.98
2022-08-19T02:35:43.078Z,19.92
2022-08-19T02:36:43.067Z,19.94
2022-08-19T02:37:43.080Z,19.88
2022-08-19T02:38:43.045Z,19.94
2022-08-19T02:39:43.079Z,19.87
2022-08-19T02:40:43.022Z,19.86
2022-08-19T02:41:43.032Z,19.86
2022-08-19T02:42:43.004Z,19.76
2022-08-19T02:44:26.252Z,19.78
2022-08-19T02:44:43.977Z,19.83
2022-08-19T02:45:42.987Z,19.81
2022-08-19T02:46:42.960Z,19.80
2022-08-19T02:47:42.943Z,19.81
2022-08-19T02:48:42.936Z,19.77
2022-08-19T02:49:42.941Z,19.71
2022-08-19T02:50:53.356Z,19.74
2022-08-19T02:51:43.897Z,19.80
2022-08-19T02:52:42.914Z,19.74
2022-08-19T02:53:42.882Z,19.69
2022-08-19T02:54:42.868Z,19.71
2022-08-19T02:55:46.128Z,19.73
2022-08-19T02:56:42.847Z,19.73
2022-08-19T02:57:42.833Z,19.69
2022-08-19T02:58:42.841Z,19.73
2022-08-19T02:59:42.814Z,19.73
2022-08-19T03:00:42.802Z,19.76
2022-08-19T03:01:43.172Z,19.69
2022-08-19T03:02:42.776Z,19.68
2022-08-19T03:03:42.798Z,19.71
2022-08-19T03:04:42.757Z,19.69
2022-08-19T03:05:48.006Z,19.71
2022-08-19T03:06:43.735Z,19.68
2022-08-19T03:07:42.741Z,19.62
2022-08-19T03:08:42.712Z,19.71
2022-08-19T03:09:42.700Z,19.66
2022-08-19T03:10:42.711Z,19.65
2022-08-19T03:11:42.677Z,19.62
2022-08-19T03:12:42.695Z,19.61
2022-08-19T03:13:42.655Z,19.62
2022-08-19T03:14:42.646Z,19.68
2022-08-19T03:15:42.634Z,19.61
2022-08-19T03:16:42.620Z,19.66
2022-08-19T03:17:42.611Z,19.66
2022-08-19T03:18:42.624Z,19.66
2022-08-19T03:19:42.605Z,19.71
2022-08-19T03:20:42.579Z,19.71
2022-08-19T03:21:42.565Z,19.69
2022-08-19T03:22:42.554Z,19.76
2022-08-19T03:23:42.563Z,19.69
2022-08-19T03:24:42.555Z,19.66
2022-08-19T03:25:42.521Z,19.71
2022-08-19T03:26:42.512Z,19.81
2022-08-19T03:27:42.503Z,19.69
2022-08-19T03:28:42.491Z,19.78
2022-08-19T03:29:43.943Z,19.74
2022-08-19T03:30:43.097Z,19.68
2022-08-19T03:31:50.971Z,19.66
2022-08-19T03:32:45.418Z,19.69
2022-08-19T03:33:42.452Z,19.71
2022-08-19T03:34:42.423Z,19.71
2022-08-19T03:35:42.413Z,19.71
2022-08-19T03:36:42.424Z,19.73
2022-08-19T03:37:42.389Z,19.62
2022-08-19T03:38:42.404Z,19.68
2022-08-19T03:39:42.422Z,19.80
2022-08-19T03:40:42.357Z,19.68
2022-08-19T03:41:44.608Z,19.68
2022-08-19T03:42:49.063Z,19.77
2022-08-19T03:43:43.343Z,19.71
2022-08-19T03:44:42.309Z,19.73
2022-08-19T03:45:42.299Z,19.69
2022-08-19T03:46:42.456Z,19.73
2022-08-19T03:47:42.276Z,19.74
2022-08-19T03:48:42.268Z,19.74
2022-08-19T03:49:42.280Z,19.68
2022-08-19T03:50:42.247Z,19.74
2022-08-19T03:51:42.323Z,19.68
2022-08-19T03:52:45.350Z,19.71
2022-08-19T03:53:42.211Z,19.69
2022-08-19T03:54:42.202Z,19.74
2022-08-19T03:55:42.189Z,19.74
2022-08-19T03:56:42.200Z,19.80
2022-08-19T03:57:42.166Z,19.66
2022-08-19T03:58:42.157Z,19.74
2022-08-19T03:59:42.172Z,19.69
2022-08-19T04:00:42.140Z,19.69
2022-08-19T04:01:42.192Z,19.68
2022-08-19T04:02:42.133Z,19.74
2022-08-19T04:03:42.099Z,19.73
2022-08-19T04:04:42.093Z,19.76
2022-08-19T04:05:42.077Z,19.68
2022-08-19T04:06:42.070Z,19.71
2022-08-19T04:07:42.371Z,19.74
2022-08-19T04:08:42.046Z,19.69
2022-08-19T04:09:42.030Z,19.76
2022-08-19T04:10:42.024Z,19.71
2022-08-19T04:11:43.120Z,19.73
2022-08-19T04:12:42.029Z,19.68
2022-08-19T04:13:41.991Z,19.73
2022-08-19T04:14:42.000Z,19.66
2022-08-19T04:15:41.965Z,19.71
2022-08-19T04:16:41.957Z,19.63
2022-08-19T04:17:41.943Z,19.71
2022-08-19T04:18:41.933Z,19.71
2022-08-19T04:19:41.941Z,19.68
2022-08-19T04:20:41.912Z,19.68
2022-08-19T04:21:41.899Z,19.66
2022-08-19T04:22:41.890Z,19.68
2022-08-19T04:23:44.756Z,19.66
2022-08-19T04:24:41.888Z,19.65
2022-08-19T04:25:41.856Z,19.58
2022-08-19T04:26:41.847Z,19.68
2022-08-19T04:27:41.833Z,19.66
2022-08-19T04:28:41.853Z,19.68
2022-08-19T04:29:41.817Z,19.63
2022-08-19T04:30:41.802Z,19.62
2022-08-19T04:31:41.825Z,19.62
2022-08-19T04:32:41.780Z,19.68
2022-08-19T04:33:41.806Z,19.66
2022-08-19T04:35:02.194Z,19.55
2022-08-19T04:35:42.743Z,19.65
2022-08-19T04:36:41.755Z,19.66
2022-08-19T04:37:41.723Z,19.55
2022-08-19T04:38:41.711Z,19.55
2022-08-19T04:39:41.736Z,19.55
2022-08-19T04:40:41.696Z,19.56
2022-08-19T04:41:41.700Z,19.58
2022-08-19T04:42:41.674Z,19.58
2022-08-19T04:43:41.657Z,19.62
2022-08-19T04:44:46.320Z,19.54
2022-08-19T04:45:43.577Z,19.63
2022-08-19T04:46:51.462Z,19.50
2022-08-19T04:47:47.739Z,19.50
2022-08-19T04:48:49.279Z,19.58
2022-08-19T04:49:42.593Z,19.55
2022-08-19T04:50:41.584Z,19.54
2022-08-19T04:51:41.591Z,19.58
2022-08-19T04:52:41.558Z,19.50
2022-08-19T04:53:41.551Z,19.58
2022-08-19T04:54:41.534Z,19.68
2022-08-19T04:55:41.522Z,19.51
2022-08-19T04:56:41.522Z,19.55
2022-08-19T04:57:41.550Z,19.51
2022-08-19T04:58:41.500Z,19.63
2022-08-19T04:59:41.490Z,19.66
2022-08-19T05:00:41.538Z,19.58
2022-08-19T05:01:41.502Z,19.56
2022-08-19T05:02:41.515Z,19.59
2022-08-19T05:03:41.451Z,19.50
2022-08-19T05:04:41.429Z,19.54
2022-08-19T05:05:44.641Z,19.55
2022-08-19T05:06:41.411Z,19.50
2022-08-19T05:07:41.395Z,19.54
2022-08-19T05:08:41.405Z,19.54
2022-08-19T05:09:58.559Z,19.50
2022-08-19T05:10:42.361Z,19.50
2022-08-19T05:11:41.343Z,19.58
2022-08-19T05:12:41.355Z,19.58
2022-08-19T05:13:41.322Z,19.58
2022-08-19T05:14:41.316Z,19.58
2022-08-19T05:15:41.307Z,19.61
2022-08-19T05:16:41.319Z,19.62
2022-08-19T05:17:41.303Z,19.62
2022-08-19T05:18:41.267Z,19.61
2022-08-19T05:19:41.258Z,19.54
2022-08-19T05:20:41.248Z,19.51
2022-08-19T05:21:41.238Z,19.62
2022-08-19T05:22:41.257Z,19.62
2022-08-19T05:23:41.214Z,19.59
2022-08-19T05:24:56.475Z,19.66
2022-08-19T05:25:42.191Z,19.71
2022-08-19T05:26:41.185Z,19.66
2022-08-19T05:27:41.174Z,19.68
2022-08-19T05:28:41.189Z,19.73
2022-08-19T05:29:41.145Z,19.71
2022-08-19T05:30:47.162Z,19.68
2022-08-19T05:31:42.121Z,19.80
2022-08-19T05:32:41.131Z,19.71
2022-08-19T05:33:41.126Z,19.69
2022-08-19T05:34:41.094Z,19.66
2022-08-19T05:35:41.083Z,19.69
2022-08-19T05:36:41.072Z,19.73
2022-08-19T05:37:41.103Z,19.71
2022-08-19T05:38:41.067Z,19.78
2022-08-19T05:39:41.095Z,19.84
2022-08-19T05:40:41.036Z,19.83
2022-08-19T05:41:41.015Z,19.83
2022-08-19T05:42:41.041Z,19.74
2022-08-19T05:43:41.011Z,19.91
2022-08-19T05:44:40.984Z,19.80
2022-08-19T05:45:40.974Z,19.80
2022-08-19T05:46:40.958Z,19.87
2022-08-19T05:47:42.400Z,19.94
2022-08-19T05:48:40.956Z,19.92
2022-08-19T05:49:40.926Z,19.95
2022-08-19T05:50:40.926Z,19.99
2022-08-19T05:51:40.901Z,20.08
2022-08-19T05:52:43.714Z,19.98
2022-08-19T05:53:41.909Z,20.03
2022-08-19T05:54:40.870Z,20.05
2022-08-19T05:55:40.883Z,20.14
2022-08-19T05:56:40.849Z,20.08
2022-08-19T05:57:40.858Z,20.11
2022-08-19T05:58:40.830Z,20.14
2022-08-19T05:59:40.814Z,20.18
2022-08-19T06:00:40.803Z,20.26
2022-08-19T06:01:40.791Z,20.26
2022-08-19T06:02:40.869Z,20.29
2022-08-19T06:03:40.768Z,20.42
2022-08-19T06:04:40.764Z,20.57
2022-08-19T06:05:46.234Z,20.64
2022-08-19T06:06:41.737Z,20.69
2022-08-19T06:07:40.761Z,20.67
2022-08-19T06:08:40.718Z,20.64
2022-08-19T06:09:40.711Z,20.72
2022-08-19T06:10:40.692Z,20.87
2022-08-19T06:11:40.706Z,20.92
2022-08-19T06:12:40.680Z,20.84
2022-08-19T06:13:40.685Z,20.91
2022-08-19T06:14:41.950Z,20.94
2022-08-19T06:15:40.660Z,20.69
2022-08-19T06:16:40.629Z,20.72
2022-08-19T06:17:40.622Z,20.67
2022-08-19T06:18:40.606Z,20.55
2022-08-19T06:19:41.193Z,20.54
2022-08-19T06:20:55.393Z,20.58
2022-08-19T06:21:41.574Z,20.55
2022-08-19T06:22:40.565Z,20.51
2022-08-19T06:23:40.553Z,20.50
2022-08-19T06:24:40.537Z,20.61
2022-08-19T06:25:40.530Z,20.48
2022-08-19T06:26:40.549Z,20.41
2022-08-19T06:27:53.404Z,20.43
2022-08-19T06:28:41.493Z,20.50
2022-08-19T06:29:40.483Z,20.36
2022-08-19T06:30:40.472Z,20.38
2022-08-19T06:31:40.465Z,20.39
2022-08-19T06:32:42.886Z,20.41
2022-08-19T06:33:40.443Z,20.32
2022-08-19T06:34:40.429Z,20.33
2022-08-19T06:35:40.443Z,20.31
2022-08-19T06:36:40.427Z,20.36
2022-08-19T06:37:43.709Z,20.38
2022-08-19T06:38:40.393Z,20.51
2022-08-19T06:39:40.457Z,20.51
2022-08-19T06:40:40.433Z,20.48
2022-08-19T06:41:47.193Z,20.43
2022-08-19T06:42:44.440Z,20.55
2022-08-19T06:43:42.318Z,20.57
2022-08-19T06:44:43.084Z,20.66
2022-08-19T06:45:40.331Z,20.67
2022-08-19T06:46:40.304Z,20.73
2022-08-19T06:47:40.307Z,20.69
2022-08-19T06:48:45.165Z,20.85
2022-08-19T06:49:41.266Z,20.73
2022-08-19T06:50:41.126Z,20.74
2022-08-19T06:51:42.526Z,20.67
2022-08-19T06:52:40.243Z,20.73
2022-08-19T06:53:40.301Z,20.70
2022-08-19T06:54:55.512Z,20.82
2022-08-19T06:55:41.219Z,20.88
2022-08-19T06:56:40.187Z,20.89
2022-08-19T06:57:40.199Z,20.99
2022-08-19T06:58:40.165Z,20.97
2022-08-19T06:59:40.154Z,20.99
2022-08-19T07:00:40.143Z,20.97
2022-08-19T07:01:40.132Z,20.87
2022-08-19T07:02:40.138Z,20.92
2022-08-19T07:03:40.110Z,20.98
2022-08-19T07:04:42.560Z,21.10
2022-08-19T07:05:40.112Z,21.01
2022-08-19T07:06:43.935Z,20.98
2022-08-19T07:07:40.074Z,20.97
2022-08-19T07:09:40.076Z,21.03
2022-08-19T07:10:42.848Z,21.01
2022-08-19T07:11:40.086Z,21.01
2022-08-19T07:12:40.009Z,20.94
2022-08-19T07:13:40.003Z,20.94
2022-08-19T07:14:40.093Z,20.82
2022-08-19T07:15:40.039Z,20.98
2022-08-19T07:16:42.929Z,20.99
2022-08-19T07:17:39.959Z,20.99
2022-08-19T07:18:39.943Z,20.99
2022-08-19T07:19:39.937Z,21.07
2022-08-19T07:20:39.924Z,21.09
2022-08-19T07:21:39.946Z,20.99
2022-08-19T07:22:39.939Z,21.07
2022-08-19T07:23:39.891Z,21.09
2022-08-19T07:24:39.884Z,21.09
2022-08-19T07:25:41.254Z,21.16
2022-08-19T07:26:39.874Z,21.16
2022-08-19T07:27:40.018Z,21.13
2022-08-19T07:28:39.844Z,21.14
2022-08-19T07:29:40.823Z,21.21
2022-08-19T07:30:39.811Z,21.13
2022-08-19T07:31:39.832Z,21.13
2022-08-19T07:32:39.790Z,21.12
2022-08-19T07:33:39.859Z,21.13
2022-08-19T07:34:40.073Z,21.19
2022-08-19T07:35:39.757Z,21.21
2022-08-19T07:36:39.799Z,21.17
2022-08-19T07:37:39.734Z,21.10
2022-08-19T07:38:39.742Z,21.14
2022-08-19T07:39:39.822Z,21.13
2022-08-19T07:40:39.700Z,21.12
2022-08-19T07:41:39.690Z,21.17
2022-08-19T07:42:39.700Z,21.24
2022-08-19T07:43:39.669Z,21.19
2022-08-19T07:45:39.650Z,21.35
2022-08-19T07:46:39.644Z,21.52
2022-08-19T07:47:58.376Z,21.54
2022-08-19T07:48:40.627Z,21.54
2022-08-19T07:49:39.603Z,21.65
2022-08-19T07:50:39.587Z,21.71
2022-08-19T07:51:39.579Z,21.77
2022-08-19T07:52:39.636Z,21.79
2022-08-19T07:53:40.013Z,21.80
2022-08-19T07:54:39.544Z,21.75
2022-08-19T07:55:42.233Z,21.82
2022-08-19T07:56:39.524Z,21.88
2022-08-19T07:57:39.565Z,21.99
2022-08-19T07:58:39.501Z,21.99
2022-08-19T07:59:39.520Z,22.00
2022-08-19T08:00:39.479Z,22.06
2022-08-19T08:01:41.828Z,22.12
2022-08-19T08:02:39.456Z,22.07
2022-08-19T08:03:39.448Z,21.84
2022-08-19T08:04:39.439Z,21.90
2022-08-19T08:05:42.988Z,21.84
2022-08-19T08:06:39.414Z,21.96
2022-08-19T08:07:39.403Z,21.86
2022-08-19T08:08:44.439Z,21.69
2022-08-19T08:09:40.380Z,21.65
2022-08-19T08:10:39.425Z,21.67
2022-08-19T08:11:39.359Z,21.64
2022-08-19T08:12:39.347Z,21.68
2022-08-19T08:13:39.336Z,21.77
2022-08-19T08:14:39.323Z,21.82
2022-08-19T08:15:42.777Z,21.92
2022-08-19T08:16:39.338Z,21.84
2022-08-19T08:17:48.878Z,21.88
2022-08-19T08:18:40.280Z,21.84
2022-08-19T08:19:39.269Z,21.91
2022-08-19T08:20:39.283Z,21.96
2022-08-19T08:22:39.235Z,21.96
2022-08-19T08:23:39.721Z,22.12
2022-08-19T08:24:39.215Z,22.17
2022-08-19T08:25:39.204Z,22.21
2022-08-19T08:26:39.214Z,22.24
2022-08-19T08:27:40.180Z,22.15
2022-08-19T08:28:39.170Z,22.20
2022-08-19T08:29:39.171Z,22.15
2022-08-19T08:30:39.148Z,22.09
2022-08-19T08:31:39.156Z,22.00
2022-08-19T08:32:39.126Z,22.09
2022-08-19T08:33:39.118Z,22.02
2022-08-19T08:34:39.107Z,22.17
2022-08-19T08:35:39.118Z,22.06
2022-08-19T08:36:39.096Z,22.10
2022-08-19T08:37:39.073Z,22.12
2022-08-19T08:38:40.245Z,22.10
2022-08-19T08:39:39.154Z,22.12
2022-08-19T08:40:39.085Z,22.03
2022-08-19T08:41:39.083Z,22.06
2022-08-19T08:42:39.017Z,22.20
2022-08-19T08:43:39.008Z,22.24
2022-08-19T08:44:38.997Z,22.31
2022-08-19T08:45:41.118Z,22.31
2022-08-19T08:46:38.976Z,22.43
2022-08-19T08:47:38.966Z,22.52
2022-08-19T08:48:38.952Z,22.40
2022-08-19T08:49:38.966Z,22.28
2022-08-19T08:50:38.933Z,22.25
2022-08-19T08:51:38.944Z,22.25
2022-08-19T08:52:39.476Z,22.17
2022-08-19T08:53:41.460Z,22.27
2022-08-19T08:54:38.912Z,22.28
2022-08-19T08:55:38.880Z,22.35
2022-08-19T08:56:38.869Z,22.47
2022-08-19T08:57:40.971Z,22.52
2022-08-19T08:58:38.848Z,22.49
2022-08-19T08:59:38.857Z,22.62
2022-08-19T09:00:38.826Z,22.54
2022-08-19T09:01:38.843Z,22.33
2022-08-19T09:02:38.803Z,22.15
2022-08-19T09:03:38.796Z,22.18
2022-08-19T09:04:38.799Z,22.22
2022-08-19T09:05:41.484Z,22.20
2022-08-19T09:06:40.704Z,22.24
2022-08-19T09:07:39.902Z,22.22
2022-08-19T09:08:38.738Z,22.21
2022-08-19T09:09:38.749Z,22.17
2022-08-19T09:10:44.276Z,22.10
2022-08-19T09:11:42.844Z,22.12
2022-08-19T09:12:38.697Z,22.10
2022-08-19T09:13:38.686Z,22.10
2022-08-19T09:14:52.298Z,22.21
2022-08-19T09:15:39.664Z,22.25
2022-08-19T09:16:38.656Z,22.30
2022-08-19T09:17:38.641Z,22.54
2022-08-19T09:18:38.634Z,22.72
2022-08-19T09:19:38.644Z,22.85
2022-08-19T09:20:41.332Z,22.80
2022-08-19T09:21:38.601Z,22.97
2022-08-19T09:22:38.635Z,22.85
2022-08-19T09:23:38.579Z,23.02
2022-08-19T09:24:38.584Z,23.25
2022-08-19T09:25:38.558Z,23.17
2022-08-19T09:26:52.515Z,23.32
2022-08-19T09:27:43.194Z,23.32
2022-08-19T09:28:39.542Z,23.32
2022-08-19T09:29:38.530Z,23.32
2022-08-19T09:30:38.496Z,23.20
2022-08-19T09:31:38.507Z,23.17
2022-08-19T09:32:38.475Z,23.28
2022-08-19T09:33:38.466Z,23.31
2022-08-19T09:34:38.453Z,23.39
2022-08-19T09:35:53.133Z,23.54
2022-08-19T09:36:39.452Z,23.46
2022-08-19T09:37:38.442Z,23.40
2022-08-19T09:38:43.708Z,23.46
2022-08-19T09:39:39.434Z,23.40
2022-08-19T09:40:38.635Z,23.43
2022-08-19T09:41:38.385Z,23.51
2022-08-19T09:42:38.387Z,23.50
2022-08-19T09:43:44.388Z,23.55
2022-08-19T09:44:39.344Z,23.57
2022-08-19T09:45:38.337Z,23.60
2022-08-19T09:46:38.343Z,23.48
2022-08-19T09:47:38.311Z,23.46
2022-08-19T09:48:38.327Z,23.46
2022-08-19T09:49:38.296Z,23.53
2022-08-19T09:50:38.282Z,23.65
2022-08-19T09:51:38.266Z,23.73
2022-08-19T09:52:38.278Z,23.78
2022-08-19T09:53:38.249Z,23.87
2022-08-19T09:54:38.234Z,24.16
2022-08-19T09:55:38.250Z,24.13
2022-08-19T09:56:38.209Z,24.18
2022-08-19T09:57:38.207Z,24.18
2022-08-19T09:58:38.192Z,24.16
2022-08-19T09:59:38.207Z,24.18
2022-08-19T10:00:38.167Z,24.18
2022-08-19T10:01:38.214Z,24.16
2022-08-19T10:02:38.151Z,24.40
2022-08-19T10:03:38.140Z,24.52
2022-08-19T10:04:38.150Z,24.80
2022-08-19T10:05:38.138Z,25.00
2022-08-19T10:06:46.403Z,25.10
2022-08-19T10:07:39.093Z,25.24
2022-08-19T10:08:38.102Z,25.36
2022-08-19T10:09:38.074Z,25.50
2022-08-19T10:10:38.080Z,25.50
2022-08-19T10:11:40.632Z,25.50
2022-08-19T10:12:38.037Z,25.43
2022-08-19T10:13:38.029Z,25.67
2022-08-19T10:14:38.037Z,25.91
2022-08-19T10:15:47.511Z,26.05
2022-08-19T10:16:39.607Z,26.25
2022-08-19T10:17:37.986Z,26.50
2022-08-19T10:18:37.971Z,26.52
2022-08-19T10:19:38.986Z,26.43
2022-08-19T10:20:38.089Z,26.47
2022-08-19T10:21:37.942Z,26.25
2022-08-19T10:22:37.932Z,26.25
2022-08-19T10:23:37.918Z,26.30
2022-08-19T10:24:37.941Z,26.15
2022-08-19T10:25:38.453Z,25.98
2022-08-19T10:26:37.889Z,26.06
2022-08-19T10:27:37.877Z,25.95
2022-08-19T10:28:37.870Z,25.83
2022-08-19T10:29:37.858Z,25.92
2022-08-19T10:30:38.866Z,25.99
2022-08-19T10:32:00.026Z,25.82
2022-08-19T10:32:38.846Z,25.83
2022-08-19T10:33:53.471Z,25.73
2022-08-19T10:34:48.039Z,25.54
2022-08-19T10:35:42.557Z,25.52
2022-08-19T10:36:37.779Z,25.45
2022-08-19T10:37:42.292Z,25.43
2022-08-19T10:38:38.819Z,25.39
2022-08-19T10:39:42.384Z,25.55
2022-08-19T10:40:38.759Z,25.58
2022-08-19T10:41:37.732Z,25.51
2022-08-19T10:42:37.718Z,25.65
2022-08-19T10:43:37.704Z,25.90
2022-08-19T10:44:37.695Z,26.23
2022-08-19T10:45:37.704Z,26.44
2022-08-19T10:46:38.672Z,26.55
2022-08-19T10:47:37.665Z,26.80
2022-08-19T10:48:37.661Z,26.82
2022-08-19T10:49:37.668Z,26.72
2022-08-19T10:50:37.631Z,26.72
2022-08-19T10:51:37.619Z,26.80
2022-08-19T10:52:39.039Z,26.87
2022-08-19T10:53:37.598Z,26.80
2022-08-19T10:54:37.587Z,26.77
2022-08-19T10:55:37.601Z,26.69
2022-08-19T10:56:37.567Z,26.69
2022-08-19T10:58:03.815Z,26.81
2022-08-19T10:58:38.547Z,26.70
2022-08-19T10:59:37.534Z,26.72
2022-08-19T11:00:37.545Z,26.63
2022-08-19T11:01:37.576Z,26.77
2022-08-19T11:02:37.503Z,26.76
2022-08-19T11:03:37.511Z,26.55
2022-08-19T11:04:37.481Z,26.81
2022-08-19T11:05:40.363Z,27.02
2022-08-19T11:06:37.464Z,26.91
2022-08-19T11:07:37.449Z,27.03
2022-08-19T11:08:37.435Z,27.21
2022-08-19T11:09:37.423Z,27.18
2022-08-19T11:10:37.437Z,27.02
2022-08-19T11:11:39.371Z,27.04
2022-08-19T11:12:37.400Z,26.92
2022-08-19T11:13:37.381Z,26.99
2022-08-19T11:14:37.387Z,26.91
2022-08-19T11:15:37.382Z,26.95
2022-08-19T11:16:37.355Z,26.69
2022-08-19T11:17:37.339Z,26.85
2022-08-19T11:18:37.337Z,27.02
2022-08-19T11:19:37.336Z,27.03
2022-08-19T11:20:37.309Z,26.84
2022-08-19T11:21:37.295Z,26.88
2022-08-19T11:22:41.513Z,26.80
2022-08-19T11:23:37.293Z,26.63
2022-08-19T11:24:37.281Z,26.62
2022-08-19T11:25:37.250Z,26.63
2022-08-19T11:26:37.264Z,26.37
2022-08-19T11:27:37.232Z,26.55
2022-08-19T11:28:37.222Z,26.63
2022-08-19T11:29:37.211Z,26.77
2022-08-19T11:30:37.201Z,26.73
2022-08-19T11:31:37.204Z,26.87
2022-08-19T11:32:37.174Z,26.89
2022-08-19T11:33:37.165Z,27.03
2022-08-19T11:34:37.157Z,27.12
2022-08-19T11:35:37.141Z,27.03
2022-08-19T11:36:37.156Z,27.00
2022-08-19T11:37:37.124Z,27.04
2022-08-19T11:38:37.109Z,27.14
2022-08-19T11:39:37.114Z,27.04
2022-08-19T11:40:37.091Z,27.07
2022-08-19T11:41:37.107Z,27.18
2022-08-19T11:42:37.066Z,26.94
2022-08-19T11:43:37.738Z,26.92
2022-08-19T11:44:37.048Z,26.89
2022-08-19T11:45:37.037Z,26.91
2022-08-19T11:46:37.032Z,26.99
2022-08-19T11:47:37.044Z,27.21
2022-08-19T11:48:37.005Z,27.21
2022-08-19T11:49:36.995Z,27.04
2022-08-19T11:50:36.982Z,26.72
2022-08-19T11:51:36.990Z,26.73
2022-08-19T11:52:37.113Z,26.69
2022-08-19T11:53:36.964Z,26.81
2022-08-19T11:54:36.947Z,26.99
2022-08-19T11:55:36.928Z,27.10
2022-08-19T11:56:37.936Z,27.18
2022-08-19T11:57:37.162Z,26.99
2022-08-19T11:58:36.897Z,27.12
2022-08-19T11:59:36.884Z,27.14
2022-08-19T12:00:36.879Z,27.25
2022-08-19T12:01:36.864Z,27.06
2022-08-19T12:02:37.161Z,26.94
2022-08-19T12:03:36.948Z,27.03
2022-08-19T12:04:36.830Z,27.22
2022-08-19T12:05:36.818Z,27.36
2022-08-19T12:06:36.811Z,27.09
2022-08-19T12:07:36.823Z,27.22
2022-08-19T12:08:36.792Z,27.12
2022-08-19T12:09:36.778Z,27.04
2022-08-19T12:10:37.766Z,27.25
2022-08-19T12:11:36.777Z,27.34
2022-08-19T12:12:36.754Z,27.43
2022-08-19T12:13:36.733Z,27.14
2022-08-19T12:14:36.732Z,27.24
2022-08-19T12:15:36.951Z,27.03
2022-08-19T12:16:39.838Z,27.06
2022-08-19T12:17:37.689Z,27.27
2022-08-19T12:18:36.683Z,27.28
2022-08-19T12:19:36.673Z,27.28
2022-08-19T12:20:36.684Z,27.47
2022-08-19T12:21:36.650Z,27.29
2022-08-19T12:22:36.636Z,27.39
2022-08-19T12:23:36.653Z,27.46
2022-08-19T12:24:36.619Z,27.37
2022-08-19T12:25:36.609Z,27.29
2022-08-19T12:26:52.754Z,27.27
2022-08-19T12:27:40.693Z,27.40
2022-08-19T12:28:36.575Z,27.47
2022-08-19T12:29:36.561Z,27.31
2022-08-19T12:30:36.553Z,27.24
2022-08-19T12:31:36.760Z,27.27
2022-08-19T12:32:36.531Z,27.21
2022-08-19T12:33:36.546Z,27.24
2022-08-19T12:34:36.507Z,26.91
2022-08-19T12:35:36.498Z,26.89
2022-08-19T12:36:36.488Z,26.97
2022-08-19T12:37:36.474Z,26.81
2022-08-19T12:38:36.492Z,26.94
2022-08-19T12:39:36.496Z,27.03
2022-08-19T12:40:36.444Z,27.12
2022-08-19T12:41:36.455Z,27.13
2022-08-19T12:42:37.433Z,27.12
2022-08-19T12:43:36.467Z,26.97
2022-08-19T12:44:36.403Z,26.89
2022-08-19T12:45:36.391Z,26.99
2022-08-19T12:46:36.381Z,27.10
2022-08-19T12:47:37.990Z,27.14
2022-08-19T12:48:36.417Z,27.24
2022-08-19T12:49:53.387Z,27.21
2022-08-19T12:50:37.345Z,27.29
2022-08-19T12:51:36.328Z,27.36
2022-08-19T12:52:36.339Z,27.27
2022-08-19T12:53:39.320Z,27.37
2022-08-19T12:54:36.297Z,27.40
2022-08-19T12:55:36.304Z,27.32